createdAt,value
2022-11-27T00:02:22.727Z,99443.58
2022-11-27T00:05:24.441Z,99442.95
2022-11-27T00:08:26.144Z,99442.02
2022-11-27T00:11:29.322Z,99440.90
2022-11-27T00:14:31.046Z,99445.27
2022-11-27T00:17:32.630Z,99443.84
2022-11-27T00:20:34.548Z,99444.64
2022-11-27T00:23:36.159Z,99446.03
2022-11-27T00:26:38.449Z,99446.02
2022-11-27T00:29:40.175Z,99447.77
2022-11-27T00:32:41.782Z,99451.85
2022-11-27T00:35:43.561Z,99447.42
2022-11-27T00:38:45.114Z,99450.73
2022-11-27T00:41:46.680Z,99452.33
2022-11-27T00:44:48.213Z,99449.04
2022-11-27T00:47:49.800Z,99450.89
2022-11-27T00:50:51.346Z,99452.69
2022-11-27T00:53:53.918Z,99456.80
2022-11-27T00:56:55.486Z,99460.33
2022-11-27T00:59:57.078Z,99459.75
2022-11-27T01:02:58.705Z,99457.02
2022-11-27T01:06:05.478Z,99455.03
2022-11-27T01:09:07.851Z,99460.42
2022-11-27T01:12:09.460Z,99457.86
2022-11-27T01:15:11.125Z,99458.21
2022-11-27T01:18:12.690Z,99455.14
2022-11-27T01:21:17.404Z,99457.57
2022-11-27T01:24:19.029Z,99454.18
2022-11-27T01:27:20.633Z,99448.64
2022-11-27T01:30:22.155Z,99443.52
2022-11-27T01:33:23.799Z,99441.21
2022-11-27T01:36:25.734Z,99440.27
2022-11-27T01:39:27.295Z,99440.52
2022-11-27T01:42:28.874Z,99438.50
2022-11-27T01:45:30.560Z,99435.74
2022-11-27T01:48:32.135Z,99439.04
2022-11-27T01:51:40.547Z,99440.84
2022-11-27T01:54:57.019Z,99443.65
2022-11-27T01:58:04.591Z,99445.89
2022-11-27T02:01:07.139Z,99444.30
2022-11-27T02:04:09.406Z,99446.98
2022-11-27T02:07:11.200Z,99448.52
2022-11-27T02:10:14.003Z,99452.44
2022-11-27T02:13:37.664Z,99451.89
2022-11-27T02:16:50.575Z,99452.23
2022-11-27T02:20:07.422Z,99448.07
2022-11-27T02:23:15.031Z,99447.71
2022-11-27T02:26:29.548Z,99447.60
2022-11-27T02:29:35.458Z,99445.13
2022-11-27T02:32:44.310Z,99445.13
2022-11-27T02:35:51.696Z,99442.65
2022-11-27T02:39:02.085Z,99453.11
2022-11-27T02:42:13.688Z,99454.08
2022-11-27T02:45:25.488Z,99457.64
2022-11-27T02:48:33.643Z,99452.13
2022-11-27T02:51:41.452Z,99451.73
2022-11-27T02:54:47.648Z,99454.80
2022-11-27T02:57:53.220Z,99459.83
2022-11-27T03:00:55.893Z,99465.85
2022-11-27T03:03:59.473Z,99462.80
2022-11-27T03:07:06.977Z,99462.23
2022-11-27T03:10:18.535Z,99466.29
2022-11-27T03:13:20.815Z,99467.66
2022-11-27T03:16:41.185Z,99464.46
2022-11-27T03:19:51.780Z,99469.22
2022-11-27T03:22:54.909Z,99468.59
2022-11-27T03:25:56.576Z,99464.99
2022-11-27T03:29:01.403Z,99464.92
2022-11-27T03:32:03.983Z,99463.73
2022-11-27T03:35:09.169Z,99465.10
2022-11-27T03:38:10.900Z,99459.96
2022-11-27T03:41:23.976Z,99463.26
2022-11-27T03:44:29.896Z,99458.77
2022-11-27T03:47:54.056Z,99457.67
2022-11-27T03:51:12.838Z,99458.86
2022-11-27T03:54:37.717Z,99459.50
2022-11-27T03:57:39.338Z,99461.45
2022-11-27T04:00:43.665Z,99463.35
2022-11-27T04:03:45.286Z,99463.58
2022-11-27T04:06:46.993Z,99461.82
2022-11-27T04:09:48.575Z,99455.82
2022-11-27T04:12:50.166Z,99455.56
2022-11-27T04:15:51.818Z,99460.48
2022-11-27T04:18:53.555Z,99456.25
2022-11-27T04:21:55.273Z,99455.73
2022-11-27T04:24:56.872Z,99453.23
2022-11-27T04:27:58.453Z,99456.67
2022-11-27T04:31:00.573Z,99458.58
2022-11-27T04:34:02.139Z,99455.50
2022-11-27T04:37:03.858Z,99454.13
2022-11-27T04:40:06.180Z,99456.11
2022-11-27T04:43:07.736Z,99463.86
2022-11-27T04:46:09.339Z,99464.95
2022-11-27T04:49:11.061Z,99461.66
2022-11-27T04:52:12.863Z,99456.66
2022-11-27T04:55:14.452Z,99454.90
2022-11-27T04:58:16.011Z,99455.58
2022-11-27T05:01:17.689Z,99459.73
2022-11-27T05:04:19.903Z,99457.49
2022-11-27T05:07:21.629Z,99450.16
2022-11-27T05:10:23.351Z,99449.58
2022-11-27T05:13:24.940Z,99443.92
2022-11-27T05:16:26.531Z,99443.05
2022-11-27T05:19:29.617Z,99437.14
2022-11-27T05:22:31.657Z,99437.69
2022-11-27T05:25:33.211Z,99437.73
2022-11-27T05:28:34.799Z,99432.69
2022-11-27T05:31:37.083Z,99433.69
2022-11-27T05:34:38.776Z,99433.52
2022-11-27T05:37:40.509Z,99427.16
2022-11-27T05:40:42.118Z,99428.80
2022-11-27T05:43:43.971Z,99425.14
2022-11-27T05:46:45.677Z,99435.56
2022-11-27T05:49:47.358Z,99442.93
2022-11-27T05:52:48.938Z,99438.91
2022-11-27T05:55:50.492Z,99439.19
2022-11-27T05:58:52.085Z,99441.82
2022-11-27T06:01:53.771Z,99442.52
2022-11-27T06:04:55.403Z,99440.11
2022-11-27T06:07:57.000Z,99436.70
2022-11-27T06:10:58.658Z,99441.80
2022-11-27T06:14:00.312Z,99445.08
2022-11-27T06:17:02.177Z,99443.94
2022-11-27T06:20:04.191Z,99442.17
2022-11-27T06:23:05.946Z,99437.30
2022-11-27T06:26:14.972Z,99439.60
2022-11-27T06:29:16.625Z,99444.88
2022-11-27T06:32:18.250Z,99441.84
2022-11-27T06:35:19.825Z,99439.40
2022-11-27T06:38:22.486Z,99437.00
2022-11-27T06:41:26.455Z,99441.86
2022-11-27T06:44:28.061Z,99441.91
2022-11-27T06:47:29.711Z,99445.89
2022-11-27T06:50:31.307Z,99453.48
2022-11-27T06:53:35.827Z,99458.73
2022-11-27T06:56:37.449Z,99456.82
2022-11-27T06:59:39.019Z,99458.39
2022-11-27T07:02:40.662Z,99457.21
2022-11-27T07:05:42.239Z,99463.71
2022-11-27T07:08:44.128Z,99462.27
2022-11-27T07:11:45.693Z,99464.92
2022-11-27T07:14:47.311Z,99463.73
2022-11-27T07:17:48.973Z,99465.15
2022-11-27T07:20:56.215Z,99463.75
2022-11-27T07:23:58.495Z,99464.41
2022-11-27T07:27:00.077Z,99463.16
2022-11-27T07:30:01.776Z,99460.16
2022-11-27T07:33:03.418Z,99456.67
2022-11-27T07:36:16.779Z,99449.06
2022-11-27T07:39:33.865Z,99451.66
2022-11-27T07:42:39.949Z,99457.96
2022-11-27T07:45:41.625Z,99461.00
2022-11-27T07:48:43.642Z,99460.93
2022-11-27T07:51:45.231Z,99464.90
2022-11-27T07:54:46.772Z,99472.17
2022-11-27T07:57:48.354Z,99475.72
2022-11-27T08:00:49.921Z,99476.44
2022-11-27T08:03:51.624Z,99471.63
2022-11-27T08:06:53.197Z,99477.86
2022-11-27T08:09:57.646Z,99480.80
2022-11-27T08:12:59.196Z,99476.95
2022-11-27T08:16:00.761Z,99478.71
2022-11-27T08:19:02.768Z,99476.11
2022-11-27T08:22:06.326Z,99482.86
2022-11-27T08:25:08.588Z,99477.09
2022-11-27T08:28:13.233Z,99478.49
2022-11-27T08:31:15.201Z,99478.23
2022-11-27T08:34:16.789Z,99475.60
2022-11-27T08:37:18.423Z,99475.53
2022-11-27T08:40:20.114Z,99479.04
2022-11-27T08:43:21.842Z,99476.77
2022-11-27T08:46:23.687Z,99474.38
2022-11-27T08:49:28.729Z,99471.83
2022-11-27T08:52:32.340Z,99473.16
2022-11-27T08:55:34.068Z,99471.40
2022-11-27T08:58:36.058Z,99469.80
2022-11-27T09:01:38.004Z,99473.86
2022-11-27T09:04:39.857Z,99475.63
2022-11-27T09:07:41.757Z,99478.79
2022-11-27T09:10:43.444Z,99477.03
2022-11-27T09:13:45.683Z,99478.95
2022-11-27T09:16:47.446Z,99480.66
2022-11-27T09:19:49.109Z,99474.41
2022-11-27T09:22:50.617Z,99476.10
2022-11-27T09:25:52.304Z,99480.02
2022-11-27T09:28:55.105Z,99480.05
2022-11-27T09:31:58.130Z,99479.70
2022-11-27T09:34:59.777Z,99479.48
2022-11-27T09:38:01.444Z,99481.36
2022-11-27T09:41:38.819Z,99478.40
2022-11-27T09:44:44.943Z,99475.08
2022-11-27T09:47:51.087Z,99471.14
2022-11-27T09:50:54.188Z,99467.23
2022-11-27T09:54:01.555Z,99463.15
2022-11-27T09:57:05.216Z,99459.85
2022-11-27T10:00:14.736Z,99452.80
2022-11-27T10:03:22.344Z,99449.15
2022-11-27T10:06:50.053Z,99446.86
2022-11-27T10:10:33.286Z,99441.90
2022-11-27T10:13:54.511Z,99441.35
2022-11-27T10:17:05.855Z,99435.57
2022-11-27T10:20:22.988Z,99426.29
2022-11-27T10:23:33.476Z,99420.88
2022-11-27T10:26:58.896Z,99416.06
2022-11-27T10:30:03.262Z,99408.47
2022-11-27T10:33:16.079Z,99407.77
2022-11-27T10:36:27.011Z,99409.46
2022-11-27T10:39:37.091Z,99408.38
2022-11-27T10:42:47.716Z,99408.48
2022-11-27T10:45:51.633Z,99406.53
2022-11-27T10:48:53.327Z,99410.23
2022-11-27T10:51:54.979Z,99409.29
2022-11-27T10:55:02.160Z,99407.89
2022-11-27T10:58:27.139Z,99402.39
2022-11-27T11:01:42.523Z,99398.64
2022-11-27T11:04:44.380Z,99394.05
2022-11-27T11:08:05.438Z,99395.48
2022-11-27T11:11:08.191Z,99386.40
2022-11-27T11:14:22.264Z,99386.85
2022-11-27T11:17:33.974Z,99389.54
2022-11-27T11:20:35.748Z,99386.12
2022-11-27T11:23:40.231Z,99383.70
2022-11-27T11:26:48.363Z,99378.10
2022-11-27T11:29:57.893Z,99374.44
2022-11-27T11:33:01.865Z,99371.94
2022-11-27T11:36:10.109Z,99376.20
2022-11-27T11:39:32.937Z,99370.70
2022-11-27T11:42:37.606Z,99364.31
2022-11-27T11:45:48.169Z,99364.80
2022-11-27T11:49:00.740Z,99363.66
2022-11-27T11:52:07.213Z,99361.82
2022-11-27T11:55:30.434Z,99356.34
2022-11-27T11:58:49.680Z,99347.92
2022-11-27T12:01:57.082Z,99346.42
2022-11-27T12:05:30.084Z,99343.50
2022-11-27T12:08:49.955Z,99339.27
2022-11-27T12:12:05.386Z,99333.21
2022-11-27T12:15:19.205Z,99336.98
2022-11-27T12:18:29.833Z,99328.62
2022-11-27T12:21:46.023Z,99325.86
2022-11-27T12:25:14.693Z,99324.44
2022-11-27T12:28:22.804Z,99322.27
2022-11-27T12:31:52.438Z,99323.30
2022-11-27T12:34:58.729Z,99323.04
2022-11-27T12:38:18.986Z,99323.56
2022-11-27T12:41:50.910Z,99323.92
2022-11-27T12:45:17.100Z,99327.27
2022-11-27T12:48:20.867Z,99323.58
2022-11-27T12:51:29.356Z,99326.10
2022-11-27T12:54:52.099Z,99324.49
2022-11-27T12:58:05.126Z,99325.76
2022-11-27T13:01:12.048Z,99323.54
2022-11-27T13:04:30.619Z,99322.23
2022-11-27T13:07:42.672Z,99322.05
2022-11-27T13:11:03.598Z,99323.39
2022-11-27T13:14:14.831Z,99324.42
2022-11-27T13:17:17.421Z,99324.80
2022-11-27T13:20:24.594Z,99326.59
2022-11-27T13:23:30.945Z,99326.65
2022-11-27T13:26:38.624Z,99322.91
2022-11-27T13:29:57.647Z,99322.39
2022-11-27T13:33:01.286Z,99323.92
2022-11-27T13:36:04.690Z,99324.27
2022-11-27T13:39:17.358Z,99318.92
2022-11-27T13:42:21.644Z,99324.09
2022-11-27T13:45:33.230Z,99326.08
2022-11-27T13:48:39.971Z,99327.34
2022-11-27T13:51:41.974Z,99321.95
2022-11-27T13:54:54.975Z,99319.83
2022-11-27T13:57:59.149Z,99321.75
2022-11-27T14:01:14.040Z,99317.91
2022-11-27T14:04:15.726Z,99317.67
2022-11-27T14:07:18.548Z,99316.89
2022-11-27T14:10:26.693Z,99310.98
2022-11-27T14:13:39.942Z,99310.61
2022-11-27T14:16:41.987Z,99309.67
2022-11-27T14:19:44.783Z,99312.77
2022-11-27T14:26:15.394Z,99311.41
2022-11-27T14:29:20.230Z,99313.98
2022-11-27T14:32:21.802Z,99312.06
2022-11-27T14:35:26.855Z,99317.83
2022-11-27T14:38:30.957Z,99318.23
2022-11-27T14:41:32.663Z,99318.77
2022-11-27T14:44:34.594Z,99314.90
2022-11-27T14:47:44.653Z,99315.80
2022-11-27T14:50:48.242Z,99313.48
2022-11-27T14:53:57.148Z,99312.80
2022-11-27T14:56:58.956Z,99319.34
2022-11-27T15:00:04.606Z,99315.00
2022-11-27T15:03:10.367Z,99309.99
2022-11-27T15:06:19.117Z,99309.46
2022-11-27T15:09:31.621Z,99309.33
2022-11-27T15:12:38.435Z,99304.66
2022-11-27T15:15:43.604Z,99297.39
2022-11-27T15:18:53.668Z,99298.92
2022-11-27T15:21:57.089Z,99286.14
2022-11-27T15:25:00.847Z,99287.15
2022-11-27T15:28:20.775Z,99280.04
2022-11-27T15:31:37.667Z,99277.20
2022-11-27T15:34:40.014Z,99280.48
2022-11-27T15:37:42.029Z,99272.59
2022-11-27T15:40:43.779Z,99270.69
2022-11-27T15:43:45.461Z,99269.23
2022-11-27T15:46:47.291Z,99263.02
2022-11-27T15:49:49.355Z,99268.25
2022-11-27T15:52:51.035Z,99264.08
2022-11-27T15:55:52.669Z,99265.44
2022-11-27T15:58:54.400Z,99261.35
2022-11-27T16:01:57.278Z,99257.06
2022-11-27T16:04:59.010Z,99256.86
2022-11-27T16:08:04.707Z,99259.27
2022-11-27T16:11:10.803Z,99253.05
2022-11-27T16:14:12.678Z,99245.12
2022-11-27T16:17:14.478Z,99248.66
2022-11-27T16:20:16.103Z,99242.88
2022-11-27T16:23:17.684Z,99243.09
2022-11-27T16:26:19.228Z,99243.35
2022-11-27T16:29:21.002Z,99239.06
2022-11-27T16:32:22.574Z,99238.52
2022-11-27T16:35:25.146Z,99240.02
2022-11-27T16:38:27.093Z,99238.91
2022-11-27T16:41:28.681Z,99237.26
2022-11-27T16:44:30.429Z,99236.35
2022-11-27T16:47:33.845Z,99230.45
2022-11-27T16:50:35.885Z,99229.60
2022-11-27T16:53:43.579Z,99227.42
2022-11-27T16:56:45.663Z,99222.10
2022-11-27T16:59:50.081Z,99226.95
2022-11-27T17:02:52.705Z,99225.11
2022-11-27T17:05:54.520Z,99221.59
2022-11-27T17:08:58.495Z,99217.20
2022-11-27T17:12:00.364Z,99215.64
2022-11-27T17:15:02.906Z,99214.56
2022-11-27T17:18:04.807Z,99216.13
2022-11-27T17:21:09.880Z,99213.48
2022-11-27T17:24:19.450Z,99214.23
2022-11-27T17:27:23.852Z,99211.95
2022-11-27T17:30:28.166Z,99205.88
2022-11-27T17:33:32.718Z,99206.35
2022-11-27T17:36:38.107Z,99204.31
2022-11-27T17:39:43.381Z,99206.09
2022-11-27T17:42:45.277Z,99202.84
2022-11-27T17:45:47.551Z,99199.04
2022-11-27T17:48:50.505Z,99200.20
2022-11-27T17:51:53.166Z,99196.45
2022-11-27T17:54:55.259Z,99197.66
2022-11-27T17:57:57.453Z,99201.23
2022-11-27T18:01:02.599Z,99201.77
2022-11-27T18:04:05.311Z,99205.99
2022-11-27T18:07:13.000Z,99204.08
2022-11-27T18:10:17.636Z,99199.85
2022-11-27T18:13:19.252Z,99205.36
2022-11-27T18:16:28.203Z,99199.35
2022-11-27T18:19:31.207Z,99204.39
2022-11-27T18:22:33.174Z,99204.27
2022-11-27T18:25:43.612Z,99202.27
2022-11-27T18:28:56.500Z,99197.01
2022-11-27T18:31:58.225Z,99194.17
2022-11-27T18:34:59.841Z,99186.35
2022-11-27T18:38:01.461Z,99176.80
2022-11-27T18:41:17.063Z,99176.20
2022-11-27T18:44:18.872Z,99168.59
2022-11-27T18:47:20.509Z,99166.08
2022-11-27T18:50:26.813Z,99161.78
2022-11-27T18:53:31.938Z,99158.63
2022-11-27T18:56:33.427Z,99150.95
2022-11-27T18:59:35.010Z,99151.25
2022-11-27T19:02:37.001Z,99145.79
2022-11-27T19:05:38.831Z,99145.90
2022-11-27T19:08:41.205Z,99136.67
2022-11-27T19:11:43.009Z,99130.40
2022-11-27T19:14:45.021Z,99122.02
2022-11-27T19:17:46.833Z,99123.13
2022-11-27T19:20:48.538Z,99122.02
2022-11-27T19:23:51.826Z,99119.61
2022-11-27T19:26:53.539Z,99117.02
2022-11-27T19:29:55.122Z,99118.91
2022-11-27T19:32:57.560Z,99120.61
2022-11-27T19:36:01.253Z,99123.05
2022-11-27T19:39:16.964Z,99115.56
2022-11-27T19:42:18.621Z,99113.01
2022-11-27T19:45:21.970Z,99112.93
2022-11-27T19:48:25.917Z,99113.30
2022-11-27T19:51:30.851Z,99109.55
2022-11-27T19:54:32.553Z,99112.94
2022-11-27T19:57:34.926Z,99111.75
2022-11-27T20:00:36.698Z,99110.86
2022-11-27T20:03:42.491Z,99108.61
2022-11-27T20:06:44.765Z,99108.27
2022-11-27T20:09:46.409Z,99109.90
2022-11-27T20:12:48.009Z,99112.94
2022-11-27T20:15:49.636Z,99111.83
2022-11-27T20:18:51.853Z,99109.48
2022-11-27T20:21:53.545Z,99113.34
2022-11-27T20:25:17.866Z,99107.37
2022-11-27T20:28:18.067Z,99107.57
2022-11-27T20:31:23.499Z,99109.22
2022-11-27T20:34:25.953Z,99111.95
2022-11-27T20:37:28.377Z,99110.81
2022-11-27T20:40:30.534Z,99103.42
2022-11-27T20:43:32.135Z,99099.59
2022-11-27T20:46:33.942Z,99107.23
2022-11-27T20:49:37.208Z,99102.81
2022-11-27T20:52:38.842Z,99099.84
2022-11-27T20:55:40.517Z,99101.01
2022-11-27T20:58:44.705Z,99094.65
2022-11-27T21:01:47.335Z,99094.63
2022-11-27T21:04:49.474Z,99093.88
2022-11-27T21:07:51.304Z,99091.60
2022-11-27T21:10:53.248Z,99094.37
2022-11-27T21:13:57.696Z,99093.80
2022-11-27T21:17:05.086Z,99092.21
2022-11-27T21:20:08.707Z,99090.95
2022-11-27T21:23:10.230Z,99085.91
2022-11-27T21:26:11.988Z,99083.72
2022-11-27T21:29:14.017Z,99073.05
2022-11-27T21:32:17.494Z,99068.40
2022-11-27T21:35:19.132Z,99064.91
2022-11-27T21:38:20.761Z,99057.36
2022-11-27T21:41:22.364Z,99051.23
2022-11-27T21:44:24.887Z,99047.23
2022-11-27T21:47:27.247Z,99041.30
2022-11-27T21:50:28.838Z,99033.02
2022-11-27T21:53:31.494Z,99026.92
2022-11-27T21:56:37.031Z,99019.92
2022-11-27T21:59:38.888Z,99011.89
2022-11-27T22:02:43.512Z,99004.48
2022-11-27T22:05:45.183Z,99004.92
2022-11-27T22:08:48.897Z,98999.88
2022-11-27T22:11:51.610Z,98999.20
2022-11-27T22:14:53.190Z,98997.92
2022-11-27T22:17:55.852Z,98999.51
2022-11-27T22:21:04.126Z,99000.85
2022-11-27T22:24:06.695Z,99000.61
2022-11-27T22:27:08.442Z,98998.65
2022-11-27T22:30:10.590Z,98999.16
2022-11-27T22:33:12.714Z,98995.08
2022-11-27T22:36:16.100Z,98993.59
2022-11-27T22:39:17.688Z,98990.52
2022-11-27T22:42:20.595Z,98995.25
2022-11-27T22:45:22.166Z,98994.16
2022-11-27T22:48:23.882Z,98989.66
2022-11-27T22:51:27.550Z,98992.06
2022-11-27T22:54:29.174Z,98996.48
2022-11-27T22:57:33.066Z,98996.77
2022-11-27T23:00:34.695Z,99000.65
2022-11-27T23:03:38.042Z,98999.61
2022-11-27T23:06:39.738Z,98994.06
2022-11-27T23:09:42.272Z,98993.37
2022-11-27T23:12:43.934Z,98992.70
2022-11-27T23:15:45.848Z,98991.10
2022-11-27T23:18:50.037Z,98994.90
2022-11-27T23:21:51.613Z,98995.04
2022-11-27T23:24:53.440Z,98997.41
2022-11-27T23:27:54.966Z,98997.29
2022-11-27T23:31:22.199Z,98994.96
2022-11-27T23:34:18.497Z,99000.34
2022-11-27T23:37:20.008Z,99000.50
2022-11-27T23:40:21.687Z,99000.23
2022-11-27T23:43:23.301Z,99000.55
2022-11-27T23:46:27.010Z,99004.52
2022-11-27T23:49:28.733Z,98996.34
2022-11-27T23:52:30.319Z,98987.79
2022-11-27T23:55:35.935Z,98981.75
2022-11-27T23:58:41.135Z,98980.34
